Check out our new BloomSky Weather System.

Active alerts

Houston, TX
  Details for Houston, TX River Flood Warning  +1 additional alert
Fort Bend, TX
  Details for Fort Bend, TX River Flood Warning  +2 additional alerts


Thunder radar  blitzortung!


Rain radar more information rain snow radar


Visit our other weather sites:

Template documentation
and downloads

And another site



Weather Underground History page Text

Daily Summary for February 8, 2018 Units:  English    Metric   Both
« Previous Day
Next Day »
Daily Weekly Monthly Yearly Custom
  High: Low: Average:
Temperature: TemperatureF °F 37.0 °F 49.1 °F
Dew Point: DewpointF °F 34.9 °F 43.3 °F
Humidity: Humidity % 62 % 81 %
Wind Speed: WindSpeedMPH mph 0.0 mph 1.5 mph
Wind Gust: WindSpeedGustMPH mph - -
Wind:- - South
Pressure: PressureIn in 30.26 in -
Precipitation: 0.00 in    
Historical Graphs
 
 
Tabular Data for February 8, 2018
Time Temperature Dew Point Pressure Wind Wind Speed Wind Gust Humidity Rainfall Rate (Hourly)
TemperatureF °F DewpointF °F PressureIn in Calm     Humidity % HourlyPrecipIn in
00:01 42.3 °F 40.6 °F 30.40 in NNE 2.0 mph 9.0 mph 94 % 0.00 in
00:06 42.3 °F 40.6 °F 30.40 in NNW 1.0 mph 12.0 mph 94 % 0.00 in
00:14 42.3 °F 40.6 °F 30.40 in NNE 3.0 mph 12.0 mph 94 % 0.00 in
00:19 42.3 °F 40.5 °F 30.39 in Calm   12.0 mph 93 % 0.00 in
00:24 42.3 °F 40.5 °F 30.39 in NW 2.0 mph 12.0 mph 93 % 0.00 in
00:29 42.3 °F 40.5 °F 30.40 in NW 4.0 mph 12.0 mph 93 % 0.00 in
00:34 42.3 °F 40.5 °F 30.40 in ESE 7.0 mph 12.0 mph 93 % 0.00 in
00:39 42.3 °F 40.5 °F 30.40 in North 3.0 mph 11.0 mph 93 % 0.00 in
00:44 42.3 °F 40.1 °F 30.40 in ENE 3.0 mph 11.0 mph 92 % 0.00 in
00:49 42.3 °F 40.1 °F 30.40 in North 2.0 mph 11.0 mph 92 % 0.00 in
00:54 42.3 °F 40.1 °F 30.40 in NNW 3.0 mph 10.0 mph 92 % 0.00 in
00:59 42.3 °F 40.1 °F 30.40 in North 3.0 mph 10.0 mph 92 % 0.00 in
01:04 42.3 °F 40.1 °F 30.40 in NNW 2.0 mph 10.0 mph 92 % 0.00 in
01:09 42.3 °F 40.1 °F 30.40 in North 4.0 mph 10.0 mph 92 % 0.00 in
01:14 42.3 °F 40.1 °F 30.40 in SW 3.0 mph 9.0 mph 92 % 0.00 in
01:19 42.1 °F 39.9 °F 30.40 in North 6.0 mph 9.0 mph 92 % 0.00 in
01:24 42.1 °F 39.9 °F 30.40 in NNW 2.0 mph 11.0 mph 92 % 0.00 in
01:29 42.1 °F 39.9 °F 30.40 in NNE 2.0 mph 11.0 mph 92 % 0.00 in
01:34 42.1 °F 39.9 °F 30.40 in NW 1.0 mph 11.0 mph 92 % 0.00 in
01:39 42.1 °F 39.9 °F 30.40 in Calm   9.0 mph 92 % 0.00 in
01:44 42.1 °F 39.9 °F 30.40 in Calm   9.0 mph 92 % 0.00 in
01:49 42.1 °F 39.9 °F 30.40 in NW 3.0 mph 6.0 mph 92 % 0.00 in
01:55 42.1 °F 39.9 °F 30.40 in North 6.0 mph 6.0 mph 92 % 0.00 in
01:59 41.9 °F 39.7 °F 30.40 in NNW 8.0 mph 8.0 mph 92 % 0.00 in
02:05 41.9 °F 39.7 °F 30.40 in NNW 4.0 mph 8.0 mph 92 % 0.00 in
02:10 41.9 °F 39.7 °F 30.40 in NNW 3.0 mph 8.0 mph 92 % 0.00 in
02:15 41.7 °F 39.6 °F 30.40 in NNW 4.0 mph 10.0 mph 92 % 0.00 in
02:20 41.7 °F 39.6 °F 30.40 in NW 1.0 mph 10.0 mph 92 % 0.00 in
02:25 41.7 °F 39.6 °F 30.40 in NNW 2.0 mph 10.0 mph 92 % 0.00 in
02:30 41.9 °F 39.7 °F 30.40 in North 3.0 mph 9.0 mph 92 % 0.00 in
02:35 41.9 °F 39.7 °F 30.40 in NW 1.0 mph 7.0 mph 92 % 0.00 in
02:40 41.9 °F 39.7 °F 30.40 in NNW 1.0 mph 7.0 mph 92 % 0.00 in
02:45 41.9 °F 39.7 °F 30.40 in ENE 1.0 mph 5.0 mph 92 % 0.00 in
02:50 41.9 °F 39.7 °F 30.40 in North 1.0 mph 5.0 mph 92 % 0.00 in
02:55 41.7 °F 39.6 °F 30.40 in NNW 3.0 mph 8.0 mph 92 % 0.00 in
03:00 41.7 °F 39.6 °F 30.40 in ENE 4.0 mph 8.0 mph 92 % 0.00 in
03:02 41.7 °F 39.6 °F 30.40 in NW 1.0 mph 8.0 mph 92 % 0.00 in
03:07 41.7 °F 39.6 °F 30.40 in NNE 4.0 mph 8.0 mph 92 % 0.00 in
03:12 41.5 °F 39.4 °F 30.40 in NW 1.0 mph 7.0 mph 92 % 0.00 in
03:17 41.5 °F 39.4 °F 30.40 in NW 2.0 mph 7.0 mph 92 % 0.00 in
03:22 41.4 °F 39.2 °F 30.40 in North 1.0 mph 7.0 mph 92 % 0.00 in
03:27 41.2 °F 39.0 °F 30.39 in NW 1.0 mph 7.0 mph 92 % 0.00 in
03:32 41.2 °F 39.0 °F 30.39 in NNE 2.0 mph 6.0 mph 92 % 0.00 in
03:37 40.8 °F 38.7 °F 30.39 in Calm   6.0 mph 92 % 0.00 in
03:42 40.8 °F 38.7 °F 30.39 in NNW 3.0 mph 6.0 mph 92 % 0.00 in
03:48 40.6 °F 38.5 °F 30.39 in Calm   10.0 mph 92 % 0.00 in
03:53 40.5 °F 38.3 °F 30.39 in Calm   10.0 mph 92 % 0.00 in
03:58 40.5 °F 38.3 °F 30.39 in North 2.0 mph 10.0 mph 92 % 0.00 in
04:03 40.3 °F 37.9 °F 30.40 in Calm   8.0 mph 91 % 0.00 in
04:08 39.9 °F 37.6 °F 30.39 in ENE 1.0 mph 8.0 mph 91 % 0.00 in
04:12 39.9 °F 37.6 °F 30.39 in North 1.0 mph 8.0 mph 91 % 0.00 in
04:17 39.9 °F 37.2 °F 30.39 in NNW 1.0 mph 7.0 mph 90 % 0.00 in
04:27 39.7 °F 37.0 °F 30.39 in Calm   5.0 mph 90 % 0.00 in
04:32 39.7 °F 37.0 °F 30.39 in Calm   7.0 mph 90 % 0.00 in
04:37 39.6 °F 36.9 °F 30.39 in North 4.0 mph 7.0 mph 90 % 0.00 in
04:42 39.6 °F 36.9 °F 30.39 in NNW 1.0 mph 7.0 mph 90 % 0.00 in
04:47 39.4 °F 36.7 °F 30.39 in North 1.0 mph 7.0 mph 90 % 0.00 in
04:52 39.4 °F 36.7 °F 30.39 in ESE 2.0 mph 7.0 mph 90 % 0.00 in
05:02 39.4 °F 36.7 °F 30.39 in North 1.0 mph 6.0 mph 90 % 0.00 in
05:07 39.2 °F 36.5 °F 30.39 in North 3.0 mph 6.0 mph 90 % 0.00 in
05:12 39.0 °F 36.3 °F 30.39 in NNW 3.0 mph 8.0 mph 90 % 0.00 in
05:17 39.0 °F 36.3 °F 30.39 in NNW 1.0 mph 8.0 mph 90 % 0.00 in
05:22 39.0 °F 36.3 °F 30.39 in North 1.0 mph 8.0 mph 90 % 0.00 in
05:27 38.8 °F 36.1 °F 30.39 in Calm   8.0 mph 90 % 0.00 in
05:32 39.0 °F 36.3 °F 30.39 in NNW 2.0 mph 9.0 mph 90 % 0.00 in
05:37 38.8 °F 36.1 °F 30.40 in NW 2.0 mph 9.0 mph 90 % 0.00 in
05:42 38.8 °F 36.1 °F 30.40 in NNW 1.0 mph 9.0 mph 90 % 0.00 in
05:47 38.8 °F 36.1 °F 30.40 in Calm   7.0 mph 90 % 0.00 in
05:52 38.8 °F 36.1 °F 30.40 in NNW 2.0 mph 5.0 mph 90 % 0.00 in
05:57 38.7 °F 36.0 °F 30.40 in Calm   6.0 mph 90 % 0.00 in
06:02 38.7 °F 36.0 °F 30.40 in North 2.0 mph 6.0 mph 90 % 0.00 in
06:07 38.5 °F 36.1 °F 30.40 in NNE 6.0 mph 7.0 mph 91 % 0.00 in
06:12 38.5 °F 36.1 °F 30.40 in NNW 4.0 mph 7.0 mph 91 % 0.00 in
06:17 38.3 °F 36.0 °F 30.40 in NNW 1.0 mph 7.0 mph 91 % 0.00 in
06:22 38.1 °F 35.8 °F 30.40 in NNW 1.0 mph 7.0 mph 91 % 0.00 in
06:27 38.1 °F 35.8 °F 30.40 in NNW 1.0 mph 7.0 mph 91 % 0.00 in
06:32 37.9 °F 35.6 °F 30.40 in NW 1.0 mph 8.0 mph 91 % 0.00 in
06:37 37.8 °F 35.4 °F 30.41 in NNE 3.0 mph 8.0 mph 91 % 0.00 in
06:42 37.8 °F 35.4 °F 30.41 in Calm   8.0 mph 91 % 0.00 in
06:47 37.6 °F 35.2 °F 30.42 in NNW 2.0 mph 7.0 mph 91 % 0.00 in
06:52 37.6 °F 35.4 °F 30.41 in North 6.0 mph 6.0 mph 92 % 0.00 in
06:57 37.6 °F 35.4 °F 30.42 in NNE 5.0 mph 6.0 mph 92 % 0.00 in
07:02 37.4 °F 35.2 °F 30.42 in NW 1.0 mph 6.0 mph 92 % 0.00 in
07:07 37.2 °F 35.1 °F 30.42 in Calm   6.0 mph 92 % 0.00 in
07:12 37.2 °F 35.1 °F 30.42 in North 2.0 mph 6.0 mph 92 % 0.00 in
07:17 37.2 °F 35.1 °F 30.42 in Calm   7.0 mph 92 % 0.00 in
07:22 37.2 °F 35.1 °F 30.42 in North 2.0 mph 7.0 mph 92 % 0.00 in
07:27 37.0 °F 34.9 °F 30.42 in North 2.0 mph 7.0 mph 92 % 0.00 in
07:32 37.0 °F 34.9 °F 30.43 in North 1.0 mph 5.0 mph 92 % 0.00 in
07:37 37.0 °F 34.9 °F 30.43 in Calm   6.0 mph 92 % 0.00 in
07:42 37.0 °F 34.9 °F 30.43 in North 1.0 mph 6.0 mph 92 % 0.00 in
07:47 37.2 °F 35.1 °F 30.43 in NW 1.0 mph 6.0 mph 92 % 0.00 in
07:52 37.2 °F 35.1 °F 30.43 in Calm   4.0 mph 92 % 0.00 in
07:57 37.6 °F 35.4 °F 30.44 in Calm   4.0 mph 92 % 0.00 in
08:02 37.8 °F 36.0 °F 30.44 in Calm   4.0 mph 93 % 0.00 in
08:07 38.1 °F 36.0 °F 30.44 in Calm   5.0 mph 92 % 0.00 in
08:12 38.3 °F 36.1 °F 30.44 in NNW 2.0 mph 7.0 mph 92 % 0.00 in
08:17 38.5 °F 36.1 °F 30.44 in Calm   8.0 mph 91 % 0.00 in
08:23 38.7 °F 36.3 °F 30.44 in North 5.0 mph 8.0 mph 91 % 0.00 in
08:28 39.0 °F 36.7 °F 30.43 in North 2.0 mph 8.0 mph 91 % 0.00 in
08:33 39.6 °F 37.2 °F 30.44 in NNE 1.0 mph 6.0 mph 91 % 0.00 in
08:38 39.9 °F 36.9 °F 30.43 in North 3.0 mph 6.0 mph 89 % 0.00 in
08:43 40.1 °F 37.0 °F 30.43 in Calm   5.0 mph 89 % 0.00 in
08:48 40.6 °F 37.4 °F 30.44 in Calm   5.0 mph 88 % 0.00 in
08:53 40.8 °F 37.2 °F 30.44 in Calm   6.0 mph 87 % 0.00 in
08:58 41.0 °F 37.2 °F 30.44 in NNW 4.0 mph 6.0 mph 86 % 0.00 in
09:03 41.2 °F 37.4 °F 30.43 in North 2.0 mph 9.0 mph 86 % 0.00 in
09:08 41.5 °F 37.6 °F 30.44 in Calm   9.0 mph 86 % 0.00 in
09:13 41.5 °F 37.0 °F 30.43 in ENE 1.0 mph 9.0 mph 84 % 0.00 in
09:18 42.1 °F 37.9 °F 30.44 in WSW 1.0 mph 6.0 mph 85 % 0.00 in
09:23 42.4 °F 37.9 °F 30.44 in NW 4.0 mph 6.0 mph 84 % 0.00 in
09:28 42.6 °F 38.1 °F 30.44 in North 2.0 mph 6.0 mph 84 % 0.00 in
09:33 42.6 °F 37.8 °F 30.44 in ENE 2.0 mph 6.0 mph 83 % 0.00 in
09:38 42.6 °F 37.8 °F 30.43 in NNW 1.0 mph 6.0 mph 83 % 0.00 in
09:43 43.3 °F 38.8 °F 30.43 in NNW 1.0 mph 5.0 mph 84 % 0.00 in
09:48 43.3 °F 38.3 °F 30.43 in North 2.0 mph 6.0 mph 82 % 0.00 in
09:53 43.5 °F 38.5 °F 30.43 in Calm   6.0 mph 82 % 0.00 in
09:58 44.1 °F 38.8 °F 30.43 in North 3.0 mph 6.0 mph 82 % 0.00 in
10:03 44.2 °F 38.5 °F 30.43 in Calm   6.0 mph 80 % 0.00 in
10:08 44.8 °F 39.6 °F 30.43 in NNW 1.0 mph 5.0 mph 82 % 0.00 in
10:13 45.0 °F 38.8 °F 30.44 in ESE 1.0 mph 5.0 mph 79 % 0.00 in
10:18 45.3 °F 39.9 °F 30.43 in NNE 1.0 mph 5.0 mph 81 % 0.00 in
10:23 45.7 °F 39.6 °F 30.43 in ENE 3.0 mph 6.0 mph 79 % 0.00 in
10:28 45.9 °F 39.7 °F 30.43 in Calm   6.0 mph 79 % 0.00 in
10:33 46.0 °F 39.6 °F 30.43 in SE 2.0 mph 6.0 mph 78 % 0.00 in
10:38 46.4 °F 40.6 °F 30.42 in Calm   7.0 mph 80 % 0.00 in
10:43 46.8 °F 39.9 °F 30.42 in ESE 4.0 mph 7.0 mph 77 % 0.00 in
10:48 46.9 °F 40.5 °F 30.42 in Calm   7.0 mph 78 % 0.00 in
10:53 47.7 °F 41.2 °F 30.42 in NNE 1.0 mph 7.0 mph 78 % 0.00 in
10:58 48.0 °F 41.2 °F 30.42 in Calm   6.0 mph 77 % 0.00 in
11:03 48.7 °F 41.5 °F 30.42 in East 3.0 mph 4.0 mph 76 % 0.00 in
11:08 48.9 °F 42.1 °F 30.41 in ESE 2.0 mph 4.0 mph 77 % 0.00 in
11:13 49.3 °F 41.7 °F 30.41 in Calm   4.0 mph 75 % 0.00 in
11:18 49.6 °F 42.1 °F 30.41 in NNW 1.0 mph 4.0 mph 75 % 0.00 in
11:23 49.5 °F 41.5 °F 30.41 in NNW 2.0 mph 6.0 mph 74 % 0.00 in
11:28 49.8 °F 42.3 °F 30.41 in ENE 3.0 mph 6.0 mph 75 % 0.00 in
11:33 50.2 °F 42.6 °F 30.41 in Calm   6.0 mph 75 % 0.00 in
11:38 50.5 °F 42.6 °F 30.40 in Calm   6.0 mph 74 % 0.00 in
11:43 50.5 °F 42.6 °F 30.40 in Calm   6.0 mph 74 % 0.00 in
11:48 51.4 °F 43.5 °F 30.40 in NNE 1.0 mph 6.0 mph 74 % 0.00 in
11:53 51.8 °F 43.0 °F 30.40 in East 2.0 mph 5.0 mph 72 % 0.00 in
11:58 52.0 °F 43.5 °F 30.39 in North 3.0 mph 4.0 mph 73 % 0.00 in
12:03 52.0 °F 43.2 °F 30.39 in ENE 1.0 mph 6.0 mph 72 % 0.00 in
12:08 52.0 °F 42.8 °F 30.39 in ESE 2.0 mph 6.0 mph 71 % 0.00 in
12:13 52.3 °F 43.5 °F 30.39 in ENE 1.0 mph 6.0 mph 72 % 0.00 in
12:18 52.9 °F 44.1 °F 30.39 in ESE 1.0 mph 6.0 mph 72 % 0.00 in
12:23 53.4 °F 44.6 °F 30.38 in SW 1.0 mph 6.0 mph 72 % 0.00 in
12:28 54.1 °F 44.6 °F 30.38 in NE 2.0 mph 6.0 mph 70 % 0.00 in
12:33 54.7 °F 44.8 °F 30.38 in Calm   5.0 mph 69 % 0.00 in
12:38 55.0 °F 45.1 °F 30.38 in ENE 1.0 mph 6.0 mph 69 % 0.00 in
12:39 55.0 °F 44.6 °F 30.38 in SE 2.0 mph 6.0 mph 68 % 0.00 in
12:44 55.0 °F 44.6 °F 30.38 in South 1.0 mph 6.0 mph 68 % 0.00 in
12:49 55.8 °F 45.3 °F 30.37 in Calm   6.0 mph 68 % 0.00 in
12:54 56.3 °F 45.9 °F 30.37 in East 4.0 mph 6.0 mph 68 % 0.00 in
12:59 56.1 °F 45.3 °F 30.37 in Calm   6.0 mph 67 % 0.00 in
13:04 56.7 °F 46.2 °F 30.36 in SSE 5.0 mph 5.0 mph 68 % 0.00 in
13:09 57.0 °F 46.2 °F 30.36 in SW 1.0 mph 6.0 mph 67 % 0.00 in
13:12 57.7 °F 46.9 °F 30.35 in East 1.0 mph 6.0 mph 67 % 0.00 in
13:22 57.7 °F 45.7 °F 30.35 in SSW 1.0 mph 5.0 mph 64 % 0.00 in
13:27 57.9 °F 46.2 °F 30.34 in ESE 3.0 mph 5.0 mph 65 % 0.00 in
13:32 58.5 °F 47.1 °F 30.34 in Calm   4.0 mph 66 % 0.00 in
13:37 58.6 °F 46.0 °F 30.34 in Calm   5.0 mph 63 % 0.00 in
13:38 58.6 °F 46.9 °F 30.33 in Calm   5.0 mph 65 % 0.00 in
13:47 59.0 °F 47.3 °F 30.33 in SSW 2.0 mph 5.0 mph 65 % 0.00 in
13:54 59.5 °F 46.9 °F 30.33 in WNW 1.0 mph 5.0 mph 63 % 0.00 in
13:59 59.4 °F 46.4 °F 30.33 in Calm   5.0 mph 62 % 0.00 in
14:07 59.9 °F 47.7 °F 30.32 in SE 2.0 mph 4.0 mph 64 % 0.00 in
14:14 60.3 °F 47.1 °F 30.32 in West 1.0 mph 5.0 mph 62 % 0.00 in
14:19 60.8 °F 48.6 °F 30.32 in NW 2.0 mph 5.0 mph 64 % 0.00 in
14:24 61.0 °F 47.8 °F 30.32 in Calm   5.0 mph 62 % 0.00 in
14:29 61.2 °F 48.0 °F 30.32 in NE 1.0 mph 5.0 mph 62 % 0.00 in
14:34 61.3 °F 48.6 °F 30.32 in SE 1.0 mph 4.0 mph 63 % 0.00 in
14:39 61.5 °F 48.7 °F 30.32 in ESE 6.0 mph 6.0 mph 63 % 0.00 in
14:44 61.3 °F 48.6 °F 30.31 in Calm   8.0 mph 63 % 0.00 in
14:49 61.7 °F 48.9 °F 30.31 in NE 2.0 mph 8.0 mph 63 % 0.00 in
14:54 61.2 °F 48.0 °F 30.31 in East 1.0 mph 8.0 mph 62 % 0.00 in
14:59 61.5 °F 50.0 °F 30.30 in ENE 3.0 mph 6.0 mph 66 % 0.00 in
15:05 61.9 °F 49.6 °F 30.30 in SE 5.0 mph 6.0 mph 64 % 0.00 in
15:10 61.5 °F 48.4 °F 30.30 in South 5.0 mph 6.0 mph 62 % 0.00 in
15:15 61.0 °F 48.7 °F 30.30 in SE 5.0 mph 8.0 mph 64 % 0.00 in
15:20 60.4 °F 48.6 °F 30.30 in ESE 1.0 mph 8.0 mph 65 % 0.00 in
15:25 60.1 °F 48.7 °F 30.30 in SSE 1.0 mph 7.0 mph 66 % 0.00 in
15:30 59.7 °F 48.4 °F 30.30 in SE 2.0 mph 6.0 mph 66 % 0.00 in
15:35 59.5 °F 48.2 °F 30.30 in SE 4.0 mph 8.0 mph 66 % 0.00 in
15:40 59.2 °F 48.2 °F 30.30 in ESE 2.0 mph 8.0 mph 67 % 0.00 in
15:45 59.2 °F 48.2 °F 30.30 in SSE 6.0 mph 8.0 mph 67 % 0.00 in
15:50 59.4 °F 48.7 °F 30.30 in SE 4.0 mph 7.0 mph 68 % 0.00 in
15:55 59.4 °F 48.7 °F 30.30 in SE 1.0 mph 7.0 mph 68 % 0.00 in
16:00 59.2 °F 48.6 °F 30.30 in SSE 4.0 mph 7.0 mph 68 % 0.00 in
16:05 58.8 °F 48.2 °F 30.29 in Calm   6.0 mph 68 % 0.00 in
16:10 58.8 °F 48.7 °F 30.30 in SSW 2.0 mph 6.0 mph 69 % 0.00 in
16:15 58.8 °F 48.7 °F 30.30 in SE 4.0 mph 5.0 mph 69 % 0.00 in
16:20 58.8 °F 49.1 °F 30.30 in SE 4.0 mph 5.0 mph 70 % 0.00 in
16:25 58.8 °F 48.7 °F 30.30 in SE 1.0 mph 5.0 mph 69 % 0.00 in
16:30 58.6 °F 48.9 °F 30.30 in SE 4.0 mph 6.0 mph 70 % 0.00 in
16:35 58.5 °F 48.7 °F 30.30 in SSE 3.0 mph 6.0 mph 70 % 0.00 in
16:40 58.3 °F 48.9 °F 30.30 in SSE 4.0 mph 6.0 mph 71 % 0.00 in
16:45 58.1 °F 48.7 °F 30.30 in ESE 3.0 mph 6.0 mph 71 % 0.00 in
16:50 57.9 °F 48.9 °F 30.30 in ESE 3.0 mph 6.0 mph 72 % 0.00 in
16:55 57.7 °F 48.7 °F 30.30 in South 3.0 mph 6.0 mph 72 % 0.00 in
17:00 57.7 °F 48.7 °F 30.29 in SSE 2.0 mph 5.0 mph 72 % 0.00 in
17:05 57.6 °F 48.6 °F 30.29 in SE 4.0 mph 4.0 mph 72 % 0.00 in
17:06 57.6 °F 48.9 °F 30.29 in SSE 2.0 mph 4.0 mph 73 % 0.00 in
17:11 57.4 °F 48.7 °F 30.30 in Calm   4.0 mph 73 % 0.00 in
17:16 57.4 °F 48.7 °F 30.30 in Calm   4.0 mph 73 % 0.00 in
17:21 57.4 °F 48.7 °F 30.30 in SE 1.0 mph 4.0 mph 73 % 0.00 in
17:26 57.4 °F 48.7 °F 30.30 in SSE 1.0 mph 4.0 mph 73 % 0.00 in
17:31 57.0 °F 48.4 °F 30.30 in SSE 1.0 mph 4.0 mph 73 % 0.00 in
17:36 57.0 °F 48.4 °F 30.30 in East 2.0 mph 5.0 mph 73 % 0.00 in
17:41 57.0 °F 48.7 °F 30.30 in SE 2.0 mph 5.0 mph 74 % 0.00 in
17:46 56.8 °F 48.6 °F 30.30 in SE 2.0 mph 5.0 mph 74 % 0.00 in
17:51 56.7 °F 48.4 °F 30.30 in East 2.0 mph 5.0 mph 74 % 0.00 in
17:56 56.7 °F 48.4 °F 30.30 in SE 2.0 mph 5.0 mph 74 % 0.00 in
18:01 56.7 °F 48.4 °F 30.30 in Calm   5.0 mph 74 % 0.00 in
18:06 56.7 °F 48.4 °F 30.30 in SE 2.0 mph 4.0 mph 74 % 0.00 in
18:11 56.5 °F 48.4 °F 30.30 in SE 1.0 mph 4.0 mph 74 % 0.00 in
18:16 56.5 °F 48.4 °F 30.30 in Calm   4.0 mph 74 % 0.00 in
18:21 56.3 °F 48.6 °F 30.30 in Calm   4.0 mph 75 % 0.00 in
18:26 56.1 °F 48.4 °F 30.30 in ESE 1.0 mph 3.0 mph 75 % 0.00 in
18:31 56.1 °F 48.4 °F 30.30 in Calm   3.0 mph 75 % 0.00 in
18:36 56.1 °F 48.4 °F 30.30 in East 1.0 mph 3.0 mph 75 % 0.00 in
18:41 56.1 °F 48.7 °F 30.30 in Calm   3.0 mph 76 % 0.00 in
18:46 55.9 °F 48.6 °F 30.30 in East 1.0 mph 3.0 mph 76 % 0.00 in
18:51 55.9 °F 48.9 °F 30.30 in Calm   2.0 mph 77 % 0.00 in
18:56 55.9 °F 48.9 °F 30.30 in SW 1.0 mph 2.0 mph 77 % 0.00 in
19:01 55.9 °F 49.1 °F 30.31 in SE 1.0 mph 2.0 mph 78 % 0.00 in
19:06 55.9 °F 49.1 °F 30.31 in Calm   2.0 mph 78 % 0.00 in
19:11 55.9 °F 49.1 °F 30.30 in ESE 2.0 mph 2.0 mph 78 % 0.00 in
19:16 55.9 °F 49.1 °F 30.30 in Calm   2.0 mph 78 % 0.00 in
19:21 55.9 °F 49.1 °F 30.30 in Calm   2.0 mph 78 % 0.00 in
19:26 55.9 °F 49.5 °F 30.30 in South 1.0 mph 2.0 mph 79 % 0.00 in
19:31 55.9 °F 49.5 °F 30.30 in Calm   2.0 mph 79 % 0.00 in
19:36 55.8 °F 49.6 °F 30.30 in Calm   2.0 mph 80 % 0.00 in
19:41 55.8 °F 49.6 °F 30.30 in South 1.0 mph 2.0 mph 80 % 0.00 in
19:46 55.6 °F 49.8 °F 30.30 in Calm   2.0 mph 81 % 0.00 in
19:51 55.6 °F 49.8 °F 30.30 in SSW 2.0 mph 2.0 mph 81 % 0.00 in
19:56 55.6 °F 49.8 °F 30.30 in SSW 1.0 mph 2.0 mph 81 % 0.00 in
20:01 55.6 °F 50.2 °F 30.30 in SSW 1.0 mph 2.0 mph 82 % 0.00 in
20:06 55.6 °F 50.2 °F 30.30 in South 1.0 mph 3.0 mph 82 % 0.00 in
20:11 55.6 °F 50.2 °F 30.30 in SW 1.0 mph 3.0 mph 82 % 0.00 in
20:16 55.6 °F 50.2 °F 30.30 in SSW 1.0 mph 3.0 mph 82 % 0.00 in
20:21 55.4 °F 50.0 °F 30.30 in Calm   2.0 mph 82 % 0.00 in
20:26 55.4 °F 50.0 °F 30.30 in Calm   1.0 mph 82 % 0.00 in
20:31 55.4 °F 50.0 °F 30.30 in Calm   1.0 mph 82 % 0.00 in
20:36 55.4 °F 50.0 °F 30.30 in ESE 1.0 mph 1.0 mph 82 % 0.00 in
20:41 55.6 °F 49.8 °F 30.30 in Calm   1.0 mph 81 % 0.00 in
20:46 55.6 °F 49.8 °F 30.30 in SE 1.0 mph 1.0 mph 81 % 0.00 in
20:51 55.6 °F 49.5 °F 30.30 in Calm   2.0 mph 80 % 0.00 in
20:56 55.8 °F 49.6 °F 30.30 in East 1.0 mph 2.0 mph 80 % 0.00 in
21:01 55.8 °F 49.6 °F 30.30 in Calm   2.0 mph 80 % 0.00 in
21:06 55.8 °F 49.6 °F 30.29 in Calm   2.0 mph 80 % 0.00 in
21:11 55.8 °F 49.6 °F 30.29 in Calm   1.0 mph 80 % 0.00 in
21:16 55.8 °F 49.3 °F 30.29 in Calm   1.0 mph 79 % 0.00 in
21:21 55.8 °F 49.6 °F 30.29 in Calm   1.0 mph 80 % 0.00 in
21:26 55.8 °F 49.6 °F 30.29 in SE 2.0 mph 2.0 mph 80 % 0.00 in
21:31 55.8 °F 49.3 °F 30.28 in Calm   2.0 mph 79 % 0.00 in
21:36 55.8 °F 49.3 °F 30.28 in ESE 1.0 mph 3.0 mph 79 % 0.00 in
21:41 55.8 °F 49.6 °F 30.28 in SE 1.0 mph 3.0 mph 80 % 0.00 in
21:47 55.8 °F 49.6 °F 30.28 in SE 1.0 mph 3.0 mph 80 % 0.00 in
21:52 55.8 °F 49.6 °F 30.28 in SE 2.0 mph 2.0 mph 80 % 0.00 in
21:57 55.8 °F 50.0 °F 30.28 in ESE 1.0 mph 4.0 mph 81 % 0.00 in
22:02 55.6 °F 49.8 °F 30.28 in ESE 1.0 mph 4.0 mph 81 % 0.00 in
22:07 55.6 °F 49.8 °F 30.28 in SE 2.0 mph 5.0 mph 81 % 0.00 in
22:12 55.6 °F 49.8 °F 30.28 in Calm   5.0 mph 81 % 0.00 in
22:17 55.6 °F 49.8 °F 30.28 in SE 1.0 mph 5.0 mph 81 % 0.00 in
22:22 55.6 °F 49.8 °F 30.28 in Calm   3.0 mph 81 % 0.00 in
22:27 55.6 °F 49.8 °F 30.28 in Calm   3.0 mph 81 % 0.00 in
22:32 55.4 °F 49.6 °F 30.28 in ESE 1.0 mph 3.0 mph 81 % 0.00 in
22:37 55.4 °F 49.6 °F 30.28 in SE 1.0 mph 3.0 mph 81 % 0.00 in
22:42 55.4 °F 49.6 °F 30.27 in Calm   3.0 mph 81 % 0.00 in
22:47 55.4 °F 49.6 °F 30.27 in Calm   3.0 mph 81 % 0.00 in
22:52 55.4 °F 50.0 °F 30.27 in ESE 2.0 mph 3.0 mph 82 % 0.00 in
22:57 55.4 °F 50.0 °F 30.27 in ESE 1.0 mph 3.0 mph 82 % 0.00 in
23:02 55.4 °F 50.0 °F 30.27 in ESE 1.0 mph 3.0 mph 82 % 0.00 in
23:07 55.4 °F 50.0 °F 30.27 in SE 1.0 mph 3.0 mph 82 % 0.00 in
23:12 55.4 °F 50.0 °F 30.27 in Calm   3.0 mph 82 % 0.00 in
23:17 55.2 °F 49.8 °F 30.27 in Calm   3.0 mph 82 % 0.00 in
23:22 55.2 °F 49.8 °F 30.27 in Calm   2.0 mph 82 % 0.00 in
23:27 55.2 °F 49.8 °F 30.27 in Calm   1.0 mph 82 % 0.00 in
23:32 55.2 °F 49.8 °F 30.27 in Calm   1.0 mph 82 % 0.00 in
23:37 55.2 °F 50.2 °F 30.27 in Calm   1.0 mph 83 % 0.00 in
23:42 55.2 °F 50.2 °F 30.26 in Calm   1.0 mph 83 % 0.00 in
23:47 55.2 °F 50.2 °F 30.26 in Calm   1.0 mph 83 % 0.00 in
23:52 55.2 °F 50.2 °F 30.26 in Calm   1.0 mph 83 % 0.00 in
23:57 55.2 °F 50.2 °F 30.26 in Calm     83 % 0.00 in
Spring, Texas: Villages of Bridgestone
Compliments of Weather Underground - 2.75 mb

Script developed by  Jim McMurry - jmcmurry@mwt.net Adapted for the template by  Wim van der Kuil - Leuven-Template.eu

You find our weather info also at:

UK Metoffice

WeatherCloud

Weather Underground

Mid-South Weather Network

AWEKAS

Citizen Weather Observer Program (CWOP)

HAMweather, WeatherForYou, PWS Weather

Equipment we use:

Weather-station
Davis Vantage Vue

Weather-program
Meteohub

Weather-server
Debian 7.9 x86 (Guest)

Provider
DreamHost

Davis Vantage Vue

Meteohub

Debian 7.9 x86 (Guest)

DreamHost